Summit, NJ (07901)

6:56 PM EDT on July 29, 2016 (GMT -0400)
Summit EMS | | Change Station

Elev 387 ft 40.71 °N, 74.36 °W | Updated 14 seconds ago

Scattered Clouds
Scattered Clouds
87.9 °F
Feels Like 93 °F
N
1.0
Wind Variable Wind from East
Gusts 4.0 mph

Today
High -- | Low -- °F
--% Chance of Precip.
Yesterday
High -- | Low -- °F
Precip. -- in
Pressure 29.87 in
Visibility 15.0 miles
Clouds Scattered Clouds 5000 ft
Heat Index 93 °F
Dew Point 70 °F
Humidity 56%
Rainfall 0.64 in
Snow Depth Not available.
5:51 AM 8:15 PM
Waning Crescent, 18% visible
METAR KMMU 292245Z 00000KT 15SM SCT050 28/21 A2987
Pressure 29.87 in
Visibility 15.0 miles
Clouds Scattered Clouds 5000 ft
Heat Index 93 °F
Dew Point 70 °F
Humidity 56%
Rainfall 0.64 in
Snow Depth Not available.
5:51 AM 8:15 PM
Waning Crescent, 18% visible
METAR KMMU 292245Z 00000KT 15SM SCT050 28/21 A2987

10-Day Weather Forecast

Almanac

Astronomy

Jul. 29, 2016 Rise Set
Actual Time
Civil Twilight
Nautical Twilight
Astronomical Twilight
Moon
Length of Visible Light
Length of Day
Tomorrow will be .
, % of the Moon is Illuminated

Today's Extremes

State Highs State Lows

Community

WunderPhotos

Upload Photos

1,928,436 photos uploaded!

WunderBlog® & News

Nearby

Air Quality

  Air Quality AQ Index Pollutant
Not available.

Snow Depth

Station Depth Elevation

Earthquake Activity

City Distance Mag. Time & Date
Minimum magnitude displayed is 2.5.

Coastal Water Temperatures

Place Temperature

Stations

Nearby Weather Stations

Station Location Temp. Windchill Dew Point Humidity Wind Precip. Elev Updated Type
                   

Watches & Warnings

There are currently no watches in effect.